Time;durP1;ratioP1;P1;durP2;ratioP2;P2;SDS_P1;SDS_P2;PMS_P1;PMS_P2;Temp;Humidity;BMP_temperature;BMP_pressure;BME280_temperature;BME280_humidity;BME280_pressure;Samples;Min_cycle;Max_cycle;Signal;HPM_P1;HPM_P2
2021/05/24 00:02:14;;;;;;;4.23;3.83;;;;;;;7.86;70.31;100191.53;232878;1174;117038;-67
2021/05/24 00:07:18;;;;;;;4.80;4.40;;;;;;;7.84;70.24;100190.92;233154;1174;117235;-67
2021/05/24 00:12:26;;;;;;;4.53;4.13;;;;;;;7.74;70.30;100202.76;232366;1174;117436;-70
2021/05/24 00:17:33;;;;;;;6.30;4.67;;;;;;;7.52;70.21;100211.13;232565;1174;118103;-70
2021/05/24 00:22:38;;;;;;;5.33;4.10;;;;;;;7.34;70.72;100223.13;232549;1174;116154;-69
2021/05/24 00:27:43;;;;;;;4.20;3.90;;;;;;;7.37;71.13;100214.78;232607;1174;116269;-68
2021/05/24 00:32:45;;;;;;;3.85;3.25;;;;;;;7.37;71.34;100209.47;232978;1174;116080;-69
2021/05/24 00:37:49;;;;;;;6.55;4.43;;;;;;;7.29;70.80;100208.88;233239;1174;115059;-70
2021/05/24 00:42:53;;;;;;;4.58;4.13;;;;;;;7.14;70.92;100221.47;233176;1174;115593;-69
2021/05/24 00:47:56;;;;;;;4.87;3.80;;;;;;;7.07;70.50;100216.96;232508;1174;115198;-69
2021/05/24 00:52:59;;;;;;;5.55;4.88;;;;;;;6.98;70.76;100223.48;232399;1174;115465;-67
2021/05/24 00:58:04;;;;;;;7.00;4.95;;;;;;;6.85;71.05;100222.61;232358;1174;115364;-69
2021/05/24 01:03:10;;;;;;;9.10;4.80;;;;;;;6.86;72.21;100224.24;234182;1174;115220;-68
2021/05/24 01:08:15;;;;;;;6.75;4.50;;;;;;;6.92;72.02;100228.75;234571;1174;116189;-70
2021/05/24 01:13:19;;;;;;;8.00;5.68;;;;;;;6.91;71.79;100225.28;233812;1174;115828;-67
2021/05/24 01:18:23;;;;;;;7.40;5.10;;;;;;;6.86;71.52;100230.36;232949;1174;115417;-67
2021/05/24 01:23:27;;;;;;;5.60;5.10;;;;;;;6.83;71.46;100232.59;233921;1174;116010;-66
2021/05/24 01:28:30;;;;;;;8.00;5.33;;;;;;;6.71;71.60;100242.95;234559;1174;116229;-67
2021/05/24 01:33:35;;;;;;;4.90;4.00;;;;;;;6.59;71.25;100244.52;235234;1174;114826;-67
2021/05/24 01:38:41;;;;;;;6.30;3.80;;;;;;;6.52;71.98;100248.95;235086;1174;115071;-68
2021/05/24 01:43:44;;;;;;;5.43;4.25;;;;;;;6.51;72.25;100234.07;235103;1173;115381;-66
2021/05/24 01:48:47;;;;;;;7.00;4.65;;;;;;;6.57;72.02;100231.46;233680;1174;115982;-67
2021/05/24 01:53:49;;;;;;;4.58;3.65;;;;;;;6.44;71.74;100236.68;234273;1174;115322;-67
2021/05/24 01:58:53;;;;;;;5.85;4.98;;;;;;;6.28;71.75;100245.77;232556;1174;115274;-68
2021/05/24 02:03:56;;;;;;;5.90;4.80;;;;;;;6.24;71.61;100244.52;233483;1173;116920;-68
2021/05/24 02:09:01;;;;;;;5.60;5.05;;;;;;;6.21;71.89;100242.25;232749;1174;115858;-69
2021/05/24 02:14:05;;;;;;;6.48;5.30;;;;;;;6.19;72.65;100241.63;232575;1174;117275;-67
2021/05/24 02:19:11;;;;;;;6.63;5.93;;;;;;;6.16;72.27;100247.30;233398;1174;116404;-68
2021/05/24 02:24:15;;;;;;;5.97;5.00;;;;;;;6.11;72.55;100257.68;232452;1167;118052;-68
2021/05/24 02:29:18;;;;;;;9.37;4.97;;;;;;;6.04;72.44;100262.10;232415;1174;115927;-68
2021/05/24 02:34:22;;;;;;;5.08;4.60;;;;;;;5.95;72.41;100264.06;232520;1174;116809;-67
2021/05/24 02:39:25;;;;;;;5.08;4.63;;;;;;;5.94;72.91;100265.07;232352;1174;116807;-69
2021/05/24 02:44:28;;;;;;;4.48;4.08;;;;;;;5.94;72.80;100277.48;232488;1174;115899;-67
2021/05/24 02:49:30;;;;;;;5.15;4.08;;;;;;;5.88;73.00;100278.20;232559;1174;116136;-67
2021/05/24 02:54:34;;;;;;;5.93;5.33;;;;;;;5.88;72.79;100289.61;232522;1174;114744;-68
2021/05/24 02:59:37;;;;;;;8.90;4.95;;;;;;;5.88;72.81;100278.20;232628;1174;115979;-66
2021/05/24 03:04:40;;;;;;;5.63;5.07;;;;;;;5.92;73.28;100290.08;233982;1174;115386;-69
2021/05/24 03:09:44;;;;;;;5.77;4.93;;;;;;;5.99;73.23;100296.26;232897;1174;115356;-68
2021/05/24 03:14:47;;;;;;;6.65;5.13;;;;;;;6.12;73.62;100288.41;232909;1174;114973;-68
2021/05/24 03:19:50;;;;;;;6.53;5.85;;;;;;;6.30;73.89;100294.05;233026;1174;116159;-68
2021/05/24 03:24:54;;;;;;;8.50;6.23;;;;;;;6.51;74.43;100292.34;235023;1174;115567;-67
2021/05/24 03:29:57;;;;;;;7.30;5.58;;;;;;;6.59;73.83;100305.44;235044;1174;114802;-67
2021/05/24 03:35:00;;;;;;;6.48;5.83;;;;;;;6.80;74.15;100301.88;234926;1174;115291;-66
2021/05/24 03:40:08;;;;;;;4.95;4.30;;;;;;;7.07;73.82;100307.09;235174;1174;115658;-67
2021/05/24 03:45:15;;;;;;;8.55;7.40;;;;;;;7.17;74.14;100301.43;235035;1174;115350;-66
2021/05/24 03:50:20;;;;;;;5.53;4.97;;;;;;;7.54;74.02;100308.07;235165;1174;115455;-67
2021/05/24 03:55:24;;;;;;;8.57;6.17;;;;;;;8.12;73.12;100310.98;234274;1174;115063;-67
2021/05/24 04:00:27;;;;;;;10.40;5.40;;;;;;;8.21;72.33;100306.29;233939;1170;115566;-66
2021/05/24 04:05:38;;;;;;;8.75;7.05;;;;;;;8.35;72.66;100302.61;232876;1174;115442;-69
2021/05/24 04:10:56;;;;;;;8.30;6.37;;;;;;;8.61;72.58;100304.41;232689;1174;115438;-68
2021/05/24 04:15:59;;;;;;;7.53;6.83;;;;;;;9.14;71.53;100299.75;233172;1174;116043;-66
2021/05/24 04:21:03;;;;;;;7.65;6.53;;;;;;;9.84;71.73;100295.22;232267;1174;115405;-70
2021/05/24 04:26:07;;;;;;;6.18;5.55;;;;;;;12.10;69.20;100292.38;232440;1174;115518;-68
2021/05/24 04:31:10;;;;;;;6.30;5.15;;;;;;;13.15;68.52;100308.31;232499;1174;116066;-68
2021/05/24 04:36:13;;;;;;;8.40;4.93;;;;;;;15.09;65.22;100313.91;232238;1174;116347;-68
2021/05/24 04:41:17;;;;;;;4.13;3.73;;;;;;;14.79;64.75;100322.38;232831;1176;115539;-66
2021/05/24 04:46:20;;;;;;;4.10;3.80;;;;;;;14.54;64.99;100313.17;232682;1174;116334;-66
2021/05/24 04:51:24;;;;;;;6.50;5.03;;;;;;;13.85;64.81;100307.22;233133;1174;115977;-66
2021/05/24 04:56:28;;;;;;;4.78;4.35;;;;;;;13.57;64.63;100306.20;234321;1174;114956;-66
2021/05/24 05:01:32;;;;;;;5.68;5.08;;;;;;;16.33;61.98;100307.59;233189;1169;115358;-67
2021/05/24 05:06:41;;;;;;;5.58;3.98;;;;;;;21.37;56.12;100310.44;234336;1174;115941;-66
2021/05/24 05:11:45;;;;;;;5.23;4.77;;;;;;;25.58;52.37;100319.39;233044;1174;116111;-67
2021/05/24 05:16:49;;;;;;;4.83;4.43;;;;;;;29.01;47.98;100336.02;234013;1174;116780;-67
2021/05/24 05:21:53;;;;;;;4.60;4.20;;;;;;;31.59;44.00;100341.41;235063;1176;116245;-68
2021/05/24 05:26:56;;;;;;;7.47;4.30;;;;;;;33.40;40.16;100355.76;235023;1174;117061;-68
2021/05/24 05:31:59;;;;;;;3.05;2.85;;;;;;;34.24;36.15;100365.52;235072;1174;118540;-68
2021/05/24 05:37:03;;;;;;;3.65;3.33;;;;;;;35.57;35.33;100366.23;233546;1174;118108;-69
2021/05/24 05:42:07;;;;;;;3.10;2.90;;;;;;;36.81;32.93;100360.27;232518;1176;116375;-69
2021/05/24 05:47:10;;;;;;;5.18;2.73;;;;;;;37.45;30.48;100371.31;234281;1174;116657;-69
2021/05/24 05:52:15;;;;;;;2.35;2.10;;;;;;;37.54;28.86;100374.47;232538;1174;116609;-69
2021/05/24 05:57:19;;;;;;;4.48;2.43;;;;;;;37.30;27.44;100389.24;233840;1174;115719;-69
2021/05/24 06:02:22;;;;;;;2.18;2.08;;;;;;;37.20;27.30;100385.27;233438;1174;116213;-71
2021/05/24 06:07:25;;;;;;;2.18;2.08;;;;;;;37.77;26.57;100384.34;232916;1174;116278;-72
2021/05/24 06:12:29;;;;;;;1.93;1.83;;;;;;;38.34;25.92;100405.16;232840;1173;115618;-73
2021/05/24 06:17:33;;;;;;;4.23;2.45;;;;;;;38.03;25.58;100394.95;232332;1177;115999;-72
2021/05/24 06:22:38;;;;;;;3.30;2.13;;;;;;;38.24;25.19;100397.65;232343;1174;115708;-71
2021/05/24 06:27:42;;;;;;;1.98;1.88;;;;;;;38.30;24.78;100393.23;232229;1174;116006;-72
2021/05/24 06:32:46;;;;;;;2.20;1.53;;;;;;;38.34;24.62;100407.94;232388;1174;116155;-71
2021/05/24 06:37:49;;;;;;;2.38;2.25;;;;;;;37.24;24.71;100408.31;232706;1174;115678;-71
2021/05/24 06:42:53;;;;;;;1.38;1.33;;;;;;;37.04;24.02;100407.09;232435;1174;115568;-71
2021/05/24 06:47:56;;;;;;;2.98;1.93;;;;;;;36.40;24.36;100409.78;232368;1174;115734;-72
2021/05/24 06:53:01;;;;;;;6.60;1.75;;;;;;;34.29;24.94;100417.77;232570;1174;115987;-71
2021/05/24 06:58:04;;;;;;;;;;;;;;;31.65;25.71;100416.34;232818;1174;115964;-71
2021/05/24 07:03:08;;;;;;;1.07;1.00;;;;;;;30.89;27.92;100421.19;233097;1174;103727;-71
2021/05/24 07:08:11;;;;;;;1.13;1.07;;;;;;;31.71;27.57;100418.50;234102;1174;116941;-72
2021/05/24 07:13:13;;;;;;;1.80;1.70;;;;;;;32.28;27.67;100418.91;233246;1174;117483;-71
2021/05/24 07:18:16;;;;;;;1.80;1.70;;;;;;;31.86;28.02;100427.86;233166;1174;116557;-70
2021/05/24 07:23:22;;;;;;;1.30;1.25;;;;;;;31.10;28.61;100418.98;233431;1174;115971;-70
2021/05/24 07:28:25;;;;;;;0.90;0.90;;;;;;;29.85;29.48;100407.67;233817;1174;115251;-70
2021/05/24 07:33:28;;;;;;;1.25;1.10;;;;;;;29.43;30.64;100414.26;234786;1174;115464;-70
2021/05/24 07:38:31;;;;;;;1.47;1.37;;;;;;;29.23;30.88;100411.61;234883;1174;115120;-71
2021/05/24 07:43:33;;;;;;;2.70;1.67;;;;;;;28.72;30.61;100411.08;235021;1174;116691;-72
2021/05/24 07:48:36;;;;;;;1.75;1.33;;;;;;;28.20;32.62;100410.75;235128;1174;115466;-72
2021/05/24 07:53:39;;;;;;;1.23;1.13;;;;;;;28.03;32.45;100406.23;235002;1174;115416;-71
2021/05/24 07:58:41;;;;;;;2.73;1.80;;;;;;;27.72;33.45;100414.85;235064;1174;115415;-72
2021/05/24 08:03:44;;;;;;;1.78;1.68;;;;;;;27.39;33.87;100409.23;234998;1174;114972;-72
2021/05/24 08:08:48;;;;;;;1.70;1.48;;;;;;;27.06;35.98;100418.08;235017;1174;115741;-71
2021/05/24 08:13:53;;;;;;;;;;;;;;;26.50;34.39;100411.79;234091;1174;115299;-71
2021/05/24 08:18:56;;;;;;;1.80;1.70;;;;;;;25.70;34.93;100410.48;233358;1174;103004;-69
2021/05/24 08:23:58;;;;;;;0.83;0.83;;;;;;;25.32;33.98;100406.69;233818;1174;115224;-70
2021/05/24 08:29:01;;;;;;;1.25;0.95;;;;;;;24.67;35.28;100397.23;232597;1174;115239;-69
2021/05/24 08:34:05;;;;;;;1.30;1.20;;;;;;;24.34;35.25;100404.09;232780;1174;116964;-69
2021/05/24 08:39:08;;;;;;;0.68;0.60;;;;;;;24.16;35.99;100387.56;232542;1174;116360;-69
2021/05/24 08:44:14;;;;;;;1.05;0.95;;;;;;;23.92;35.84;100383.53;232385;1174;115901;-70
2021/05/24 08:49:17;;;;;;;1.13;1.00;;;;;;;23.87;36.00;100381.73;233082;1176;115728;-70
2021/05/24 08:54:24;;;;;;;0.67;0.60;;;;;;;23.73;36.05;100380.98;232599;1174;116075;-71
2021/05/24 08:59:29;;;;;;;1.75;1.00;;;;;;;23.64;35.79;100369.19;232514;1169;115968;-69
2021/05/24 09:04:45;;;;;;;0.83;0.55;;;;;;;23.56;36.04;100364.47;232476;1174;115685;-70
2021/05/24 09:10:02;;;;;;;1.03;0.88;;;;;;;23.43;36.52;100352.48;232502;1174;115653;-70
2021/05/24 09:15:10;;;;;;;1.43;0.95;;;;;;;23.51;37.24;100346.33;232891;1174;115858;-71
2021/05/24 09:20:28;;;;;;;1.03;0.93;;;;;;;23.69;37.12;100337.23;232771;1174;115958;-71
2021/05/24 09:25:58;;;;;;;1.15;1.00;;;;;;;23.64;36.57;100340.06;232877;1174;115530;-70
2021/05/24 09:31:25;;;;;;;0.55;0.53;;;;;;;23.54;36.70;100329.42;233954;1174;116623;-69
2021/05/24 09:36:29;;;;;;;0.60;0.60;;;;;;;23.40;36.25;100332.13;232538;1174;115204;-70
2021/05/24 09:41:47;;;;;;;2.73;0.98;;;;;;;23.27;36.49;100343.02;233774;1174;115213;-70
2021/05/24 09:46:52;;;;;;;3.43;1.33;;;;;;;23.12;37.16;100344.16;233170;1174;115508;-69
2021/05/24 09:51:57;;;;;;;1.20;1.10;;;;;;;23.06;37.29;100350.80;233407;1174;120063;-69
2021/05/24 09:57:05;;;;;;;1.00;1.00;;;;;;;23.07;37.23;100346.98;234552;1172;115355;-69
2021/05/24 10:02:09;;;;;;;1.65;1.23;;;;;;;23.02;37.35;100360.67;232717;1173;116338;-70
2021/05/24 10:07:12;;;;;;;3.70;1.20;;;;;;;23.21;38.02;100347.79;233358;1174;116147;-71
2021/05/24 10:12:16;;;;;;;1.95;1.30;;;;;;;23.26;37.90;100342.22;232688;1174;118157;-69
2021/05/24 10:17:20;;;;;;;0.65;0.65;;;;;;;22.91;37.77;100337.53;232798;1174;116293;-69
2021/05/24 10:22:24;;;;;;;0.78;0.78;;;;;;;22.91;37.78;100316.59;232448;1170;115661;-69
2021/05/24 10:27:29;;;;;;;0.58;0.58;;;;;;;22.81;37.99;100323.02;233667;1173;115918;-69
2021/05/24 10:32:34;;;;;;;1.00;0.97;;;;;;;22.75;38.07;100316.03;232674;1174;115456;-71
2021/05/24 10:37:43;;;;;;;0.90;0.70;;;;;;;23.02;38.78;100306.29;232565;1174;116153;-71
2021/05/24 10:42:47;;;;;;;1.18;0.90;;;;;;;23.01;38.75;100304.67;232653;1174;116021;-73
2021/05/24 10:48:01;;;;;;;0.83;0.83;;;;;;;23.04;38.13;100307.59;232830;1167;115552;-72
2021/05/24 10:53:09;;;;;;;1.43;1.23;;;;;;;22.78;37.84;100309.22;232644;1174;115088;-71
2021/05/24 10:58:12;;;;;;;1.07;0.90;;;;;;;22.28;38.30;100306.33;232460;1173;115801;-71
2021/05/24 11:03:15;;;;;;;1.25;1.15;;;;;;;22.14;38.45;100287.27;232553;1174;115454;-72
2021/05/24 11:08:26;;;;;;;2.65;0.90;;;;;;;22.20;38.07;100277.13;232665;1167;115450;-72
2021/05/24 11:13:30;;;;;;;2.43;0.63;;;;;;;22.23;38.12;100275.73;232534;1174;115649;-72
2021/05/24 11:18:41;;;;;;;1.90;1.20;;;;;;;22.24;38.07;100270.00;232685;1174;115485;-71
2021/05/24 11:29:14;;;;;;;1.18;1.05;;;;;;;22.44;38.41;100258.75;232475;1174;116229;-72
2021/05/24 11:34:29;;;;;;;1.08;0.58;;;;;;;22.68;38.99;100252.31;233255;1174;115254;-74
2021/05/24 11:39:46;;;;;;;1.35;1.25;;;;;;;22.61;38.45;100235.63;232648;1174;115596;-73
2021/05/24 11:44:51;;;;;;;5.23;2.23;;;;;;;22.40;38.78;100236.01;232482;1174;115254;-72
2021/05/24 11:49:57;;;;;;;1.75;1.65;;;;;;;22.73;39.14;100225.03;234449;1174;115715;-72
2021/05/24 11:55:10;;;;;;;0.88;0.88;;;;;;;22.89;38.88;100218.22;234397;1174;115746;-73
2021/05/24 12:00:18;;;;;;;4.58;1.43;;;;;;;23.17;38.56;100224.39;233832;1174;115730;-73
2021/05/24 12:05:22;;;;;;;2.03;1.23;;;;;;;23.36;38.68;100224.23;233134;1174;116886;-73
2021/05/24 12:10:28;;;;;;;3.63;2.00;;;;;;;23.54;38.53;100198.80;232591;1174;115478;-71
2021/05/24 12:15:32;;;;;;;1.10;1.08;;;;;;;23.33;38.62;100193.00;233494;1174;116406;-72
2021/05/24 12:20:36;;;;;;;2.37;1.40;;;;;;;23.16;38.68;100196.39;232603;1174;115611;-72
2021/05/24 12:25:43;;;;;;;2.00;1.20;;;;;;;23.01;38.12;100188.56;232943;1174;116085;-74
2021/05/24 12:30:51;;;;;;;13.23;7.88;;;;;;;22.80;38.53;100198.28;232914;1174;115928;-70
2021/05/24 12:36:02;;;;;;;1.98;1.35;;;;;;;22.82;39.40;100194.16;232647;1174;116087;-71
2021/05/24 12:41:06;;;;;;;1.13;1.13;;;;;;;22.52;39.06;100189.33;232863;1173;115589;-73
2021/05/24 12:46:09;;;;;;;4.68;2.30;;;;;;;22.41;39.70;100180.58;232508;1174;115185;-70
2021/05/24 12:51:26;;;;;;;1.20;1.10;;;;;;;22.24;39.39;100183.10;232591;1174;115560;-68
2021/05/24 12:56:44;;;;;;;1.15;1.13;;;;;;;22.31;39.42;100175.36;232480;1174;116252;-68
2021/05/24 13:01:49;;;;;;;1.60;1.50;;;;;;;22.23;40.00;100158.96;232610;1174;115347;-68
2021/05/24 13:06:56;;;;;;;1.25;1.25;;;;;;;22.35;39.62;100153.81;232952;1174;115682;-70
2021/05/24 13:12:06;;;;;;;1.10;1.00;;;;;;;22.36;39.13;100131.78;233819;1174;116534;-72
2021/05/24 13:28:44;;;;;;;1.80;1.70;;;;;;;22.62;38.96;100102.19;233413;1174;116136;-70
2021/05/24 13:33:53;;;;;;;1.23;1.13;;;;;;;22.68;39.51;100094.70;233786;1175;115858;-73
2021/05/24 13:39:19;;;;;;;3.03;1.95;;;;;;;22.72;39.48;100084.83;232760;1174;116145;-73
2021/05/24 13:44:25;;;;;;;1.18;1.18;;;;;;;22.56;39.35;100075.42;232657;1174;117449;-71
2021/05/24 13:49:31;;;;;;;1.25;1.25;;;;;;;22.32;39.13;100081.11;232533;1175;116784;-71
2021/05/24 13:54:35;;;;;;;1.80;1.43;;;;;;;22.25;39.43;100083.43;233759;1175;116411;-71
2021/05/24 13:59:39;;;;;;;1.50;1.40;;;;;;;22.19;39.57;100071.86;235003;1176;117302;-70
2021/05/24 14:04:42;;;;;;;1.00;1.00;;;;;;;22.17;39.95;100046.92;233329;1174;117149;-69
2021/05/24 14:09:46;;;;;;;3.83;1.40;;;;;;;22.20;39.67;100051.75;235180;1174;116706;-71
2021/05/24 14:14:48;;;;;;;3.20;1.40;;;;;;;22.18;39.90;100043.91;233969;1174;116454;-71
2021/05/24 14:19:51;;;;;;;1.70;1.30;;;;;;;22.07;39.58;100052.55;234981;1174;117335;-71
2021/05/24 14:24:54;;;;;;;2.93;1.40;;;;;;;21.95;39.41;100052.25;232995;1175;116783;-69
2021/05/24 14:29:57;;;;;;;1.33;0.90;;;;;;;21.92;39.35;100059.08;233310;1176;116497;-70
2021/05/24 14:35:00;;;;;;;5.03;1.00;;;;;;;21.75;39.51;100048.81;232592;1176;116409;-70
2021/05/24 14:40:06;;;;;;;1.30;1.20;;;;;;;21.68;39.95;100034.06;232508;1174;117416;-70
2021/05/24 14:45:10;;;;;;;2.60;0.90;;;;;;;21.69;39.66;100052.75;232748;1174;116408;-70
2021/05/24 14:50:26;;;;;;;1.58;1.05;;;;;;;21.59;39.90;100033.14;232778;1174;117484;-70
2021/05/24 14:55:31;;;;;;;2.57;0.90;;;;;;;21.59;39.68;100030.43;232894;1175;116029;-70
2021/05/24 15:00:35;;;;;;;24.90;15.25;;;;;;;21.46;40.07;100013.02;232578;1174;116705;-70
2021/05/24 15:05:39;;;;;;;2.93;1.27;;;;;;;21.43;39.80;100008.20;232780;1174;116611;-70
2021/05/24 15:10:42;;;;;;;0.80;0.80;;;;;;;21.06;39.33;99990.16;232586;1174;115682;-70
2021/05/24 15:15:46;;;;;;;1.50;0.60;;;;;;;20.69;39.74;99986.42;232217;1174;115966;-70
2021/05/24 15:20:52;;;;;;;0.60;0.60;;;;;;;20.42;39.98;99962.75;232399;1174;175047;-71
2021/05/24 15:25:56;;;;;;;0.37;0.37;;;;;;;20.27;40.46;99957.52;232925;1174;114935;-71
2021/05/24 15:30:59;;;;;;;3.23;1.15;;;;;;;20.05;40.43;99943.77;232431;1174;116436;-72
2021/05/24 15:36:02;;;;;;;1.83;0.80;;;;;;;20.14;41.37;99931.20;233078;1174;116337;-71
2021/05/24 15:41:05;;;;;;;0.65;0.65;;;;;;;20.37;41.15;99924.08;233140;1174;115625;-72
2021/05/24 15:46:09;;;;;;;0.70;0.70;;;;;;;20.43;40.66;99917.52;232779;1174;115415;-72
2021/05/24 15:51:12;;;;;;;10.90;4.65;;;;;;;20.35;40.75;99920.86;233149;1174;115214;-72
2021/05/24 15:56:14;;;;;;;5.00;0.97;;;;;;;20.31;40.65;99920.64;232817;1174;116323;-72
2021/05/24 16:01:17;;;;;;;3.85;0.58;;;;;;;20.31;40.86;99907.11;232548;1174;117059;-73
2021/05/24 16:06:21;;;;;;;0.90;0.77;;;;;;;20.18;40.39;99899.72;232446;1174;116834;-72
2021/05/24 16:11:24;;;;;;;0.93;0.60;;;;;;;20.03;40.59;99895.35;232500;1173;114863;-72
2021/05/24 16:16:27;;;;;;;1.87;0.77;;;;;;;19.77;40.65;99897.63;232375;1174;115945;-72
2021/05/24 16:21:32;;;;;;;0.80;0.80;;;;;;;19.48;40.71;99888.78;232512;1174;115615;-72
2021/05/24 16:26:36;;;;;;;4.40;1.23;;;;;;;19.25;41.42;99882.31;233582;1174;115604;-70
2021/05/24 16:31:39;;;;;;;1.78;1.43;;;;;;;19.12;42.13;99878.39;232797;1174;117417;-70
2021/05/24 16:36:42;;;;;;;2.05;1.33;;;;;;;18.96;41.89;99863.42;232197;1174;116979;-70
2021/05/24 16:41:45;;;;;;;4.65;1.10;;;;;;;18.86;42.74;99857.34;232324;1176;116341;-72
2021/05/24 16:46:48;;;;;;;1.43;1.30;;;;;;;18.78;42.96;99851.47;232294;1174;208105;-71
2021/05/24 16:51:51;;;;;;;1.58;1.13;;;;;;;18.72;43.20;99832.90;232582;1173;115972;-69
2021/05/24 16:56:54;;;;;;;1.58;1.00;;;;;;;18.63;43.60;99829.23;233105;1174;116536;-72
2021/05/24 17:01:57;;;;;;;0.65;0.65;;;;;;;18.56;43.88;99844.92;232910;1167;117336;-74
2021/05/24 17:06:59;;;;;;;1.03;0.93;;;;;;;18.48;44.31;99844.44;232636;1174;116250;-74
2021/05/24 17:12:02;;;;;;;24.60;16.43;;;;;;;18.41;44.17;99830.47;232282;1174;116700;-79
2021/05/24 17:17:05;;;;;;;13.10;7.85;;;;;;;18.39;44.71;99838.03;232564;1176;117180;-71
2021/05/24 17:22:08;;;;;;;16.80;8.08;;;;;;;18.38;44.79;99841.02;232561;1174;117616;-71
2021/05/24 17:27:12;;;;;;;10.65;6.13;;;;;;;18.29;45.03;99821.16;232476;1174;117227;-72
2021/05/24 17:32:16;;;;;;;8.70;6.03;;;;;;;18.09;45.14;99803.22;232473;1174;117059;-72
2021/05/24 17:37:19;;;;;;;2.70;2.10;;;;;;;17.98;45.47;99797.13;232312;1174;117028;-73
2021/05/24 17:42:36;;;;;;;;;;;;;;;17.82;45.71;99791.02;232462;1169;116548;-71
2021/05/24 17:47:41;;;;;;;15.65;10.20;;;;;;;17.68;45.93;99781.98;233477;1174;103082;-72
2021/05/24 17:52:52;;;;;;;2.50;1.67;;;;;;;17.59;46.10;99778.22;232849;1174;117048;-73
2021/05/24 17:57:57;;;;;;;1.85;1.20;;;;;;;17.47;46.55;99788.53;233303;1174;116224;-75
2021/05/24 18:03:02;;;;;;;1.43;0.93;;;;;;;17.39;46.73;99781.05;232499;1174;116835;-71
2021/05/24 18:08:07;;;;;;;2.78;1.75;;;;;;;17.29;46.76;99775.71;234694;1174;115884;-76
2021/05/24 18:13:10;;;;;;;2.70;1.18;;;;;;;17.23;46.96;99772.23;233021;1174;116954;-76
2021/05/24 18:18:22;;;;;;;3.20;1.73;;;;;;;17.15;47.39;99767.41;232729;1176;117314;-73
2021/05/24 18:23:26;;;;;;;1.93;1.60;;;;;;;17.10;47.87;99767.47;234001;1174;117520;-75
2021/05/24 18:28:29;;;;;;;5.45;2.60;;;;;;;16.99;47.83;99758.62;232518;1176;116336;-76
2021/05/24 18:33:33;;;;;;;31.25;15.50;;;;;;;16.92;48.11;99762.68;233502;1175;117535;-77
2021/05/24 18:38:38;;;;;;;10.37;5.50;;;;;;;16.82;48.38;99761.63;233449;1174;116953;-70
2021/05/24 18:43:42;;;;;;;11.05;6.38;;;;;;;16.76;48.46;99761.95;232706;1174;116885;-72
2021/05/24 18:48:46;;;;;;;1.58;1.30;;;;;;;16.69;48.75;99756.05;232597;1174;117331;-70
2021/05/24 18:53:50;;;;;;;2.90;1.37;;;;;;;16.61;48.94;99760.06;232648;1176;116287;-72
2021/05/24 18:58:54;;;;;;;1.55;1.43;;;;;;;16.55;49.61;99761.15;232543;1175;116251;-69
2021/05/24 19:04:07;;;;;;;4.07;2.17;;;;;;;16.41;49.55;99758.23;232519;1174;117255;-67
2021/05/24 19:09:11;;;;;;;5.33;2.40;;;;;;;16.36;50.20;99763.63;232785;1176;119592;-69
2021/05/24 19:14:15;;;;;;;3.90;2.40;;;;;;;16.33;50.49;99764.16;232752;1174;117386;-68
2021/05/24 19:19:18;;;;;;;2.77;2.37;;;;;;;16.30;50.53;99767.39;233249;1174;118570;-67
2021/05/24 19:24:22;;;;;;;2.73;1.85;;;;;;;16.28;50.85;99760.67;232370;1169;116966;-68
2021/05/24 19:29:27;;;;;;;3.75;1.53;;;;;;;16.25;51.10;99756.64;232491;1176;117001;-68
2021/05/24 19:34:31;;;;;;;4.30;2.37;;;;;;;16.23;51.24;99750.72;232478;1176;116269;-68
2021/05/24 19:39:34;;;;;;;2.43;1.93;;;;;;;16.19;51.38;99743.49;232310;1174;116744;-68
2021/05/24 19:44:37;;;;;;;3.75;1.90;;;;;;;16.15;51.39;99733.27;232088;1174;116273;-68
2021/05/24 20:27:06;;;;;;;2.38;1.98;;;;;;;15.99;51.28;99710.16;233755;1174;117268;-69
2021/05/24 20:32:10;;;;;;;4.95;1.68;;;;;;;15.97;51.73;99703.44;234972;1174;116239;-69
2021/05/24 20:37:13;;;;;;;7.13;2.00;;;;;;;15.98;51.89;99696.98;235204;1176;118376;-69
2021/05/24 20:42:18;;;;;;;2.25;1.65;;;;;;;15.97;52.05;99700.75;232804;1174;116412;-69
2021/05/24 20:47:21;;;;;;;3.15;1.75;;;;;;;15.94;52.19;99702.09;232561;1175;116833;-68
2021/05/24 20:52:25;;;;;;;3.07;2.37;;;;;;;15.89;52.37;99704.81;233207;1174;115933;-69
2021/05/24 20:57:30;;;;;;;4.85;2.85;;;;;;;15.86;52.76;99699.97;232652;1174;115898;-69
2021/05/24 21:02:34;;;;;;;2.50;2.30;;;;;;;15.86;52.91;99699.97;232824;1174;115072;-69
2021/05/24 21:07:39;;;;;;;2.58;2.28;;;;;;;15.88;52.29;99697.02;232592;1174;116404;-71
2021/05/24 21:12:45;;;;;;;4.68;2.33;;;;;;;15.82;53.11;99702.39;232376;1174;115461;-68
2021/05/24 21:17:50;;;;;;;2.50;2.05;;;;;;;15.74;53.22;99697.55;233347;1174;115970;-68
2021/05/24 21:22:54;;;;;;;4.10;1.90;;;;;;;15.72;53.35;99698.89;232930;1174;115811;-67
2021/05/24 21:27:58;;;;;;;6.13;2.60;;;;;;;15.70;53.44;99704.53;232865;1167;115877;-67
2021/05/24 21:33:09;;;;;;;3.00;2.70;;;;;;;15.66;53.97;99690.02;232512;1174;114818;-67
2021/05/24 21:38:13;;;;;;;2.63;2.27;;;;;;;15.61;54.05;99676.58;232688;1172;115497;-67
2021/05/24 21:43:18;;;;;;;6.73;3.33;;;;;;;15.60;54.29;99672.27;232835;1173;116577;-65
2021/05/24 21:48:22;;;;;;;5.18;2.98;;;;;;;15.55;54.52;99649.97;233231;1174;118127;-67
2021/05/24 21:53:24;;;;;;;5.48;2.85;;;;;;;15.45;54.38;99629.28;233164;1174;115959;-66
2021/05/24 21:58:31;;;;;;;3.20;2.83;;;;;;;15.41;54.68;99628.20;232508;1174;116133;-66
2021/05/24 22:03:36;;;;;;;12.73;3.17;;;;;;;15.37;55.00;99629.80;233399;1174;140921;-70
2021/05/24 22:08:44;;;;;;;3.85;2.75;;;;;;;15.33;55.01;99631.41;232421;1176;117432;-68
2021/05/24 22:13:48;;;;;;;4.80;2.88;;;;;;;15.32;55.28;99624.43;233957;1174;116810;-69
2021/05/24 22:18:51;;;;;;;7.43;2.90;;;;;;;15.28;55.89;99626.06;232473;1174;116370;-69
2021/05/24 22:23:54;;;;;;;4.17;3.00;;;;;;;15.24;55.80;99616.93;234696;1174;120009;-69
2021/05/24 22:28:58;;;;;;;3.90;2.75;;;;;;;15.16;56.16;99616.38;232373;1174;115681;-68
2021/05/24 22:34:02;;;;;;;4.45;2.90;;;;;;;15.15;56.38;99614.77;232569;1174;116306;-70
2021/05/24 22:39:11;;;;;;;4.70;2.70;;;;;;;15.12;56.88;99619.86;235194;1174;115535;-71
2021/05/24 22:44:17;;;;;;;3.43;2.38;;;;;;;15.11;56.63;99626.30;234969;1174;114982;-70
2021/05/24 22:49:21;;;;;;;3.57;2.77;;;;;;;15.03;56.88;99638.37;234297;1174;115218;-69
2021/05/24 22:54:26;;;;;;;2.05;2.00;;;;;;;14.98;57.53;99626.84;233629;1169;115431;-70
2021/05/24 22:59:29;;;;;;;3.68;2.78;;;;;;;14.94;57.67;99626.56;233703;1174;114976;-68
2021/05/24 23:04:32;;;;;;;4.30;2.45;;;;;;;14.93;57.75;99627.63;233518;1174;115057;-70
2021/05/24 23:09:35;;;;;;;2.50;2.30;;;;;;;14.90;58.04;99617.42;232506;1174;115152;-68
2021/05/24 23:14:38;;;;;;;3.38;2.28;;;;;;;14.86;58.14;99613.66;232492;1174;114844;-69
2021/05/24 23:19:42;;;;;;;2.83;1.80;;;;;;;14.82;58.16;99620.63;232532;1174;115210;-70
2021/05/24 23:24:46;;;;;;;3.07;1.93;;;;;;;14.75;58.63;99614.70;232470;1174;115155;-69
2021/05/24 23:29:49;;;;;;;5.47;2.13;;;;;;;14.66;58.36;99627.03;232803;1174;115331;-70
2021/05/24 23:34:52;;;;;;;4.35;2.13;;;;;;;14.50;58.79;99623.48;232490;1173;115381;-70
2021/05/24 23:39:55;;;;;;;2.70;2.30;;;;;;;14.31;59.24;99631.16;232561;1170;115761;-70
2021/05/24 23:44:58;;;;;;;2.40;1.93;;;;;;;14.18;60.22;99620.09;232505;1174;115112;-70
2021/05/24 23:50:05;;;;;;;2.15;1.45;;;;;;;14.01;61.33;99620.29;233254;1174;115598;-69
2021/05/24 23:55:11;;;;;;;2.75;2.10;;;;;;;13.81;61.88;99594.97;232572;1174;115900;-69
